CheckWX is a tool to help pilots better visualize weather data.  It is not intended as a substitute for an official pre-flight weather briefing.

21:08:53 UTC

KMRB METAR
Eastern Wv Regional / Shepherd Field Airport
Martinsburg, West Virginia, USA
Current

16 mins ago

KMRB 232053Z 24010KT 10SM CLR 28/19 A2996 RMK AO2 SLP140 60003 T02830189 58028
Observed
May-23 @ 20:53 UTC
Wind
  • 240° at 10 KTS
Visibility
10 SM
Flight Rules
VFR
Cloud Levels
  • Clear skies
Temperature
28°C / 82°F
Dewpoint
19°C / 66°F
Heat Index
29°C / 84°F
Humidity
58%
Altimeter
29.96" Hg
Pressure
1014.52 hPa
Previous

1 hour ago

KMRB 231953Z 24008KT 10SM CLR 26/19 A2999 RMK AO2 SLP151 T02610194
Observed
May-23 @ 19:53 UTC
Wind
  • 240° at 8 KTS
Visibility
10 SM
Flight Rules
VFR
Cloud Levels
  • Clear skies
Temperature
26°C / 79°F
Dewpoint
19°C / 66°F
Humidity
65%
Altimeter
29.99" Hg
Pressure
1015.62 hPa
Previous

2 hours ago

KMRB 231853Z 27014G18KT 10SM FEW110 27/20 A3003 RMK AO2 PK WND 28031/1757 WSHFT 1756 LTG DSNT E-S RAB1756E19 SLP164 P0003 T02670200
Observed
May-23 @ 18:53 UTC
Wind
  • 270° at 14 KTS
  • Gusting to 18 KTS
Visibility
10 SM
Flight Rules
VFR
Cloud Levels
  • Few at 11,000' AGL
Temperature
27°C / 81°F
Dewpoint
20°C / 68°F
Heat Index
29°C / 84°F
Humidity
66%
Altimeter
30.03" Hg
Pressure
1016.92 hPa
Current Rain
0.03"